Record high temperature 36.3°C Record low temperature -6.1°C Record high gust 90.1 km/h Record high average 70.9 km/h Record daily rain 58.2 mm Record low windchill -9.9°C Record high barometer 1045.9 hPa Record low barometer 985.2 hPa
Daily high pressure 1005.1 hPa Daily low pressure 997.7 hPa Daily low windchill 4.0°C Daily high heat index 14.0°C Daily high gust speed 53.7 kmh WNW Daily high average speed 38.5 kmh WNW
Stazione meteo Crema centro
ULTIMO RILEVAMENTO ALLE ORE: 20:30 GIORNO: 26 Febbraio 2020 prossimo aggiornamento ore: 20:35
Tempo presenteNight time/Windy/Clear Temperatura attuale 7.9°C (46.3°F), temperatura apparente 1.9°C
Temperatura massima (da mezzanotte)14.0°C alle ore: 12:43 Temperatura minima (da mezzanotte)7.0°C alle ore: 06:49
Forza media vento (dieci minuti)21.3 kmh (11.5 kts) Direzione vento (dieci minuti)WNW (297°)
Temperatura vento 4.3°C Massima forza (ultima ora)53.1 kmh (28.7 kts) alle ore: 19:42
Massima forza (da mezzanotte)53.7 kmh (29.0 kts) alle ore: 15:03 Massimo vento 1 minuto (da mezzanotte)38.5 kmh (20.8 kts) alle ore: 13:20
Pioggia (ultima ora)0.0 mm Pioggia (da mezzanotte)0.0 mm (0.00 in.)---
Pioggia Questo mese 4.1 mm (0.16 in.) Pioggia Questo anno 30.7 mm (1.21 in.)
Massima pioggia per minuto (ultima ora)0.0 mm/min Massima pioggia per ora (ultime 6 ore)0.0 mm/ore
Pioggia di ieri 0.0 mm DewPoint -6.2°C (Wet Bulb :3.2°C )
Umidita 36 %, Humidex 4.5°C Pressione S.L.M.1005.1 hPa (QNH 1005.1 hPa
Variazione pressione +1.3 hPa (ultima ora) Tendenza (ultime 1 ore)Aumento slowly
Variazione pressione (ultime 12 ore)+5.5 hPa Variazione pressione (ultime 6 ore)+6.9 hPa
Current Solar 0 W/mē
Maximum solar (da mezzanotte) 624 W/mē Minimum solar (da mezzanotte)0 W/mē
Current 04:59 hours of sunshine today, current sky: Night time/Windy/Clear
Sunshine hours for the year: 205:18 hrs Sunshine hours for the month: 106:43 hrs
Current evapotranspiration rate 3.3 mm per day. Yesterday's reading 0.5

Questa pagina e` aggiornata con i dati della stazione meteo DAVIS VP Premere Reload o Refresh per facilitare la lettura dei dati aggiornati.

Status report of weather station: IK2CHZ - Crema meteo



Weather report/warning/Metars

Milano / Linate, Italy (LIML) 45-26N 009-17E 103M
Feb 26, 2020 - 01:50 PM EST / 2020.02.26 1850 UTC
Wind: from the NW (320 degrees) at 17 MPH (15 KT) gusting to 32 MPH (28 KT) (direction variable):0
Visibility: greater than 7 mile(s):0
Temperature: 48 F (9 C)
Dew Point: 17 F (-8 C)
Relative Humidity: 29%
Pressure (altimeter): 29.68 in. Hg (1005 hPa)
ob: LIML 261850Z 32015G28KT 280V350 CAVOK 09/M08 Q1005 WS R36 NOSIG
cycle: 19
Bergamo / Orio Al Serio, Italy (LIME) 45-40N 009-42E 237M
Feb 26, 2020 - 01:50 PM EST / 2020.02.26 1850 UTC
Wind: from the WNW (290 degrees) at 13 MPH (11 KT) (direction variable):0
Visibility: greater than 7 mile(s):0
Temperature: 46 F (8 C)
Dew Point: 5 F (-15 C)
Relative Humidity: 17%
Pressure (altimeter): 29.59 in. Hg (1002 hPa)
ob: LIME 261850Z 29011KT 260V320 CAVOK 08/M15 Q1002 NOSIG
cycle: 19
Piacenza, Italy (LIMS) 44-55N 009-44E 138M
Feb 26, 2020 - 12:55 PM EST / 2020.02.26 1755 UTC
Wind: from the WNW (300 degrees) at 17 MPH (15 KT) (direction variable):0
Visibility: greater than 7 mile(s):0
Temperature: 50 F (10 C)
Dew Point: -4 F (-20 C)
Relative Humidity: 10%
Pressure (altimeter): 29.59 in. Hg (1002 hPa)
ob: LIMS 261755Z 30015KT 260V330 CAVOK 10/M20 Q1002
cycle: 18